Time;durP1;ratioP1;P1;durP2;ratioP2;P2;SDS_P1;SDS_P2;PMS_P1;PMS_P2;Temp;Humidity;BMP_temperature;BMP_pressure;BME280_temperature;BME280_humidity;BME280_pressure;Samples;Min_cycle;Max_cycle;Signal;HPM_P1;HPM_P2
2024/04/01 00:00:00;;;;;;;62.27;6.13;;;12.50;99.90;;;;;;5072603;28;20221;-67
2024/04/01 00:02:48;;;;;;;52.47;5.23;;;12.50;99.90;;;;;;5068017;28;20225;-68
2024/04/01 00:05:34;;;;;;;53.43;6.30;;;12.50;99.90;;;;;;5072191;28;20202;-67
2024/04/01 00:08:21;;;;;;;60.70;4.90;;;12.60;99.90;;;;;;5066798;28;20228;-68
2024/04/01 00:11:07;;;;;;;44.97;4.97;;;12.80;99.90;;;;;;5072352;28;20228;-67
2024/04/01 00:13:54;;;;;;;44.90;5.43;;;13.00;99.90;;;;;;5066529;28;20694;-67
2024/04/01 00:16:43;;;;;;;40.77;4.33;;;13.00;99.90;;;;;;5060901;28;20201;-67
2024/04/01 00:19:30;;;;;;;42.30;4.73;;;13.10;99.90;;;;;;5065912;28;20210;-67
2024/04/01 00:22:16;;;;;;;62.73;5.20;;;13.30;99.90;;;;;;5068991;28;20204;-67
2024/04/01 00:25:04;;;;;;;51.67;5.63;;;13.50;99.90;;;;;;5072728;28;20194;-68
2024/04/01 00:27:51;;;;;;;49.13;5.33;;;13.50;99.90;;;;;;5072119;28;20211;-67
2024/04/01 00:30:39;;;;;;;48.43;5.40;;;13.70;99.90;;;;;;5070050;28;20615;-67
2024/04/01 00:33:26;;;;;;;53.63;5.27;;;13.60;99.90;;;;;;5065968;28;20677;-67
2024/04/01 00:36:13;;;;;;;48.40;5.30;;;13.40;99.90;;;;;;5064385;28;20202;-67
2024/04/01 00:39:00;;;;;;;49.20;5.50;;;13.00;99.90;;;;;;5063082;28;20222;-68
2024/04/01 00:41:47;;;;;;;42.27;5.70;;;12.90;99.90;;;;;;5046702;28;20192;-67
2024/04/01 00:44:33;;;;;;;60.70;5.83;;;12.80;99.90;;;;;;5043764;28;20226;-67
2024/04/01 00:47:20;;;;;;;48.83;5.47;;;12.80;99.90;;;;;;5038278;28;20205;-67
2024/04/01 00:50:08;;;;;;;46.97;5.60;;;12.90;99.90;;;;;;5043155;28;20656;-67
2024/04/01 00:52:55;;;;;;;52.10;5.90;;;12.80;99.90;;;;;;5046324;28;20197;-67
2024/04/01 00:55:42;;;;;;;62.90;5.60;;;12.70;99.90;;;;;;5043655;28;20569;-67
2024/04/01 00:58:30;;;;;;;40.67;4.60;;;12.70;99.90;;;;;;5041425;28;20216;-68
2024/04/01 01:01:16;;;;;;;39.70;4.77;;;12.70;99.90;;;;;;5041870;28;20217;-67
2024/04/01 01:04:04;;;;;;;54.73;7.17;;;12.70;99.90;;;;;;5040758;28;20220;-68
2024/04/01 01:06:52;;;;;;;67.80;5.50;;;12.60;99.90;;;;;;5041658;28;20205;-68
2024/04/01 01:09:39;;;;;;;52.07;5.20;;;12.40;99.90;;;;;;5036460;28;20202;-68
2024/04/01 01:12:25;;;;;;;52.20;5.60;;;12.40;99.90;;;;;;5044228;28;20216;-67
2024/04/01 01:15:13;;;;;;;50.17;5.90;;;12.50;99.90;;;;;;5044783;28;20289;-68
2024/04/01 01:17:59;;;;;;;51.23;4.70;;;12.70;99.90;;;;;;5044287;28;20632;-67
2024/04/01 01:20:46;;;;;;;43.73;4.70;;;12.80;99.90;;;;;;5044281;28;20296;-67
2024/04/01 01:23:34;;;;;;;57.57;4.63;;;12.70;99.90;;;;;;5038207;28;20251;-67
2024/04/01 01:26:22;;;;;;;44.47;5.13;;;12.60;99.90;;;;;;5041879;28;20193;-68
2024/04/01 01:29:08;;;;;;;49.67;4.20;;;12.50;99.90;;;;;;5038216;28;20202;-67
2024/04/01 01:31:55;;;;;;;44.73;4.23;;;12.80;99.90;;;;;;5041062;28;20267;-67
2024/04/01 01:34:42;;;;;;;50.07;5.17;;;12.90;99.90;;;;;;5047065;28;20197;-67
2024/04/01 01:37:29;;;;;;;41.60;4.83;;;12.90;99.90;;;;;;5040474;28;20666;-68
2024/04/01 01:40:18;;;;;;;43.57;4.13;;;13.00;99.90;;;;;;5053953;28;20269;-67
2024/04/01 01:43:04;;;;;;;48.00;5.23;;;13.00;99.90;;;;;;5072703;28;20212;-67
2024/04/01 01:45:51;;;;;;;60.23;4.50;;;12.90;99.90;;;;;;5059625;28;20266;-67
2024/04/01 01:48:37;;;;;;;35.00;4.23;;;13.00;99.90;;;;;;5064249;28;20201;-67
2024/04/01 01:51:26;;;;;;;47.23;4.10;;;13.10;99.90;;;;;;5069421;28;20239;-67
2024/04/01 01:54:13;;;;;;;44.83;5.10;;;13.30;99.90;;;;;;5069708;28;20295;-67
2024/04/01 01:57:01;;;;;;;43.83;4.53;;;13.30;99.90;;;;;;5065971;28;20215;-67
2024/04/01 01:59:48;;;;;;;32.50;3.97;;;13.90;99.90;;;;;;5073822;28;20198;-67
2024/04/01 02:02:35;;;;;;;38.43;3.87;;;14.30;99.90;;;;;;5068498;28;20205;-67
2024/04/01 02:05:21;;;;;;;48.97;5.43;;;14.40;99.90;;;;;;5070366;28;20677;-68
2024/04/01 02:08:08;;;;;;;34.40;4.30;;;14.20;99.90;;;;;;5062853;28;20910;-67
2024/04/01 02:10:56;;;;;;;45.87;4.50;;;14.20;99.90;;;;;;5063125;28;20653;-68
2024/04/01 02:13:44;;;;;;;37.70;3.93;;;14.10;99.90;;;;;;5070951;28;20191;-68
2024/04/01 02:16:31;;;;;;;47.00;4.20;;;14.00;99.90;;;;;;5067254;28;20694;-68
2024/04/01 02:19:18;;;;;;;37.43;4.07;;;13.80;99.90;;;;;;5071374;28;20575;-67
2024/04/01 02:22:12;;;;;;;46.80;4.17;;;13.70;99.90;;;;;;5071487;28;20691;-67
2024/04/01 02:24:59;;;;;;;47.50;4.73;;;13.60;99.90;;;;;;5069509;28;20276;-67
2024/04/01 02:27:45;;;;;;;34.83;3.97;;;13.40;99.90;;;;;;5073213;28;21078;-68
2024/04/01 02:30:34;;;;;;;37.00;5.43;;;13.30;99.90;;;;;;5068110;28;20229;-68
2024/04/01 02:33:20;;;;;;;35.83;5.23;;;13.20;99.90;;;;;;5066623;28;20193;-67
2024/04/01 02:36:07;;;;;;;41.27;5.37;;;13.00;99.90;;;;;;5074153;28;20296;-68
2024/04/01 02:38:54;;;;;;;40.43;3.67;;;12.80;99.90;;;;;;5074530;28;20220;-67
2024/04/01 02:41:41;;;;;;;39.87;4.50;;;12.70;99.90;;;;;;5071219;28;20209;-68
2024/04/01 02:44:27;;;;;;;40.23;4.53;;;12.50;99.90;;;;;;5073023;28;20223;-68
2024/04/01 02:47:16;;;;;;;43.70;5.27;;;12.30;99.90;;;;;;5065306;28;20283;-68
2024/04/01 02:50:02;;;;;;;44.03;4.90;;;12.20;99.90;;;;;;5073691;28;20210;-68
2024/04/01 02:52:50;;;;;;;40.27;5.23;;;12.10;99.90;;;;;;5072488;28;20200;-67
2024/04/01 02:55:36;;;;;;;48.87;5.27;;;11.90;99.90;;;;;;5067475;28;20311;-67
2024/04/01 02:58:24;;;;;;;51.90;5.17;;;11.90;99.90;;;;;;5073459;28;20219;-67
2024/04/01 03:01:12;;;;;;;54.83;6.03;;;11.90;99.90;;;;;;5074323;28;20211;-67
2024/04/01 03:04:03;;;;;;;43.67;4.97;;;11.80;99.90;;;;;;5066462;28;20587;-67
2024/04/01 03:06:50;;;;;;;39.63;5.50;;;11.70;99.90;;;;;;5066592;28;20424;-68
2024/04/01 03:09:36;;;;;;;51.90;6.50;;;11.60;99.90;;;;;;5068395;28;20209;-68
2024/04/01 03:12:24;;;;;;;44.80;6.37;;;11.40;99.90;;;;;;5065217;28;20223;-67
2024/04/01 03:15:10;;;;;;;45.67;5.70;;;11.50;99.90;;;;;;5073704;28;20209;-67
2024/04/01 03:17:57;;;;;;;44.70;5.47;;;11.40;99.90;;;;;;5076202;28;20652;-67
2024/04/01 03:20:45;;;;;;;48.87;6.53;;;11.30;99.90;;;;;;5073055;28;20681;-68
2024/04/01 03:23:32;;;;;;;45.50;5.73;;;11.20;99.90;;;;;;5071706;28;20218;-68
2024/04/01 03:26:19;;;;;;;47.83;6.43;;;11.40;99.90;;;;;;5071020;28;20275;-67
2024/04/01 03:29:06;;;;;;;41.13;5.40;;;11.40;99.90;;;;;;5076222;28;20204;-67
2024/04/01 03:31:52;;;;;;;43.60;5.00;;;11.40;1.00;;;;;;5066495;28;20256;-67
2024/04/01 03:34:41;;;;;;;44.70;6.60;;;11.30;1.00;;;;;;5071645;28;20187;-67
2024/04/01 03:37:29;;;;;;;53.43;5.63;;;11.10;1.00;;;;;;5070335;28;20203;-68
2024/04/01 03:40:16;;;;;;;49.40;4.80;;;11.00;1.00;;;;;;5064176;28;20237;-68
2024/04/01 03:43:03;;;;;;;44.00;4.27;;;11.00;1.00;;;;;;5067959;28;20280;-67
2024/04/01 03:45:58;;;;;;;43.93;5.97;;;11.20;1.00;;;;;;5068918;28;20331;-67
2024/04/01 03:48:44;;;;;;;38.73;4.20;;;11.40;1.00;;;;;;5066799;28;20687;-67
2024/04/01 03:51:32;;;;;;;38.43;3.77;;;11.50;1.00;;;;;;5068759;28;20199;-68
2024/04/01 03:54:20;;;;;;;33.30;4.73;;;11.60;1.00;;;;;;5075817;28;20201;-67
2024/04/01 03:57:07;;;;;;;39.80;5.23;;;11.60;1.00;;;;;;5064611;28;20202;-67
2024/04/01 03:59:53;;;;;;;51.00;5.43;;;11.60;1.00;;;;;;5069137;28;20572;-68
2024/04/01 04:02:42;;;;;;;54.27;4.70;;;11.50;1.00;;;;;;5064362;28;20740;-68
2024/04/01 04:05:30;;;;;;;37.37;4.90;;;11.40;1.00;;;;;;5064273;28;20554;-67
2024/04/01 04:08:18;;;;;;;42.77;5.80;;;11.30;1.00;;;;;;5067231;28;20297;-67
2024/04/01 04:11:09;;;;;;;40.20;5.43;;;11.30;1.00;;;;;;5069454;28;20653;-68
2024/04/01 04:13:55;;;;;;;46.73;5.43;;;11.40;1.00;;;;;;5066985;28;20897;-68
2024/04/01 04:16:42;;;;;;;44.70;5.17;;;11.50;1.00;;;;;;5068641;28;20355;-68
2024/04/01 04:19:28;;;;;;;36.47;5.27;;;11.40;1.00;;;;;;5069410;28;20671;-68
2024/04/01 04:22:15;;;;;;;49.20;7.40;;;11.30;1.00;;;;;;5071247;28;20672;-67
2024/04/01 04:25:02;;;;;;;43.23;5.90;;;11.20;1.00;;;;;;5071881;28;20216;-67
2024/04/01 04:27:50;;;;;;;49.30;6.40;;;11.20;1.00;;;;;;5069817;28;20619;-68
2024/04/01 04:30:36;;;;;;;36.80;6.23;;;11.10;1.00;;;;;;5067670;28;20194;-67
2024/04/01 04:33:24;;;;;;;40.87;5.80;;;11.10;1.00;;;;;;5058451;28;20593;-68
2024/04/01 04:36:10;;;;;;;44.57;6.17;;;11.00;1.00;;;;;;5071587;28;20208;-67
2024/04/01 04:38:57;;;;;;;45.97;5.17;;;11.10;1.00;;;;;;5066614;28;20221;-68
2024/04/01 04:41:43;;;;;;;53.70;4.97;;;11.10;1.00;;;;;;5074080;28;20588;-68
2024/04/01 04:44:32;;;;;;;49.60;5.30;;;11.20;1.00;;;;;;5064023;28;20331;-67
2024/04/01 04:47:19;;;;;;;49.60;5.60;;;11.40;1.00;;;;;;5072679;28;20204;-68
2024/04/01 04:50:06;;;;;;;58.20;5.90;;;11.60;1.00;;;;;;5068861;28;20234;-68
2024/04/01 04:52:53;;;;;;;61.77;6.10;;;11.90;1.00;;;;;;5057181;28;20227;-68
2024/04/01 04:55:41;;;;;;;48.67;5.93;;;12.10;1.00;;;;;;5066487;28;20199;-67
2024/04/01 04:58:27;;;;;;;67.93;5.83;;;12.20;1.00;;;;;;5070514;28;20571;-67
2024/04/01 05:01:15;;;;;;;59.67;5.57;;;12.30;1.00;;;;;;5066819;28;20656;-68
2024/04/01 05:04:02;;;;;;;64.70;7.00;;;12.50;1.00;;;;;;5067411;28;20221;-67
2024/04/01 05:06:49;;;;;;;80.27;7.43;;;12.70;1.00;;;;;;5078856;28;20199;-67
2024/04/01 05:09:35;;;;;;;75.60;8.73;;;13.00;1.00;;;;;;5079238;28;20210;-68
2024/04/01 05:12:23;;;;;;;82.97;7.30;;;13.30;1.00;;;;;;5071694;28;20684;-68
2024/04/01 05:15:10;;;;;;;83.90;7.07;;;13.50;1.00;;;;;;5066385;28;20610;-68
2024/04/01 05:17:58;;;;;;;72.13;7.63;;;13.70;1.00;;;;;;5073056;28;20238;-67
2024/04/01 05:20:46;;;;;;;71.60;7.07;;;13.90;1.00;;;;;;5064895;28;20696;-68
2024/04/01 05:23:33;;;;;;;66.67;6.80;;;13.90;28.90;;;;;;5073793;28;20228;-68
2024/04/01 05:26:20;;;;;;;68.33;6.83;;;13.90;1.00;;;;;;5074572;28;20211;-67
2024/04/01 05:29:07;;;;;;;79.93;8.30;;;14.00;8.00;;;;;;5066483;28;20231;-68
2024/04/01 05:31:54;;;;;;;63.87;6.60;;;13.90;1.00;;;;;;5058883;28;20204;-68
2024/04/01 05:34:42;;;;;;;56.33;7.20;;;14.00;1.00;;;;;;5062852;28;20285;-68
2024/04/01 05:37:30;;;;;;;59.83;7.10;;;14.20;1.00;;;;;;5070114;28;20618;-68
2024/04/01 05:40:16;;;;;;;71.87;6.80;;;14.30;1.00;;;;;;5068785;28;20303;-68
2024/04/01 05:43:03;;;;;;;63.97;5.97;;;14.40;1.00;;;;;;5054862;28;20200;-68
2024/04/01 05:45:49;;;;;;;50.03;5.70;;;14.60;1.00;;;;;;5065603;28;20201;-67
2024/04/01 05:48:37;;;;;;;62.27;6.37;;;14.80;1.00;;;;;;5075198;28;20970;-68
2024/04/01 05:51:26;;;;;;;71.97;7.17;;;14.80;1.00;;;;;;5074497;28;20685;-67
2024/04/01 05:54:12;;;;;;;53.87;5.23;;;14.90;1.00;;;;;;5070686;28;20204;-68
2024/04/01 05:56:59;;;;;;;56.67;5.90;;;15.00;1.00;;;;;;5063397;28;20200;-68
2024/04/01 05:59:46;;;;;;;69.67;6.73;;;15.10;1.00;;;;;;5072767;28;20213;-68
2024/04/01 06:02:33;;;;;;;39.73;5.43;;;15.10;1.00;;;;;;5069262;28;20188;-67
2024/04/01 06:05:19;;;;;;;51.67;5.20;;;15.20;1.00;;;;;;5071727;28;20330;-67
2024/04/01 06:08:08;;;;;;;52.60;5.90;;;15.30;1.00;;;;;;5077013;28;20314;-67
2024/04/01 06:10:54;;;;;;;56.87;6.57;;;15.30;1.00;;;;;;5071423;28;20577;-67
2024/04/01 06:13:42;;;;;;;52.67;5.30;;;15.30;1.00;;;;;;5063610;28;20222;-67
2024/04/01 06:16:28;;;;;;;38.43;4.73;;;15.50;1.00;;;;;;5063182;28;20245;-67
2024/04/01 06:19:16;;;;;;;66.53;5.83;;;15.50;1.00;;;;;;5071190;28;20196;-67
2024/04/01 06:22:02;;;;;;;59.27;6.70;;;15.60;1.00;;;;;;5072018;28;20283;-67
2024/04/01 06:24:51;;;;;;;43.57;5.23;;;15.70;1.00;;;;;;5074214;28;20243;-68
2024/04/01 06:27:37;;;;;;;50.67;5.87;;;15.70;1.00;;;;;;5072990;28;20197;-66
2024/04/01 06:30:25;;;;;;;50.17;6.37;;;15.80;1.00;;;;;;5061456;28;20204;-67
2024/04/01 06:33:11;;;;;;;51.80;5.70;;;16.00;1.00;;;;;;5075302;28;20582;-67
2024/04/01 06:36:02;;;;;;;57.73;5.50;;;16.00;1.00;;;;;;5070440;28;20190;-66
2024/04/01 06:38:49;;;;;;;66.23;5.60;;;16.10;1.00;;;;;;5064996;28;20276;-67
2024/04/01 06:41:38;;;;;;;62.23;6.00;;;16.20;1.00;;;;;;5068311;28;20587;-66
2024/04/01 06:44:24;;;;;;;78.70;7.10;;;16.10;1.00;;;;;;5067277;28;20221;-67
2024/04/01 06:47:11;;;;;;;68.13;6.10;;;16.30;1.00;;;;;;5071870;28;20211;-66
2024/04/01 06:49:59;;;;;;;75.33;6.27;;;16.30;1.00;;;;;;5071196;28;20196;-67
2024/04/01 06:52:45;;;;;;;62.53;5.43;;;16.30;1.00;;;;;;5069503;28;20196;-67
2024/04/01 06:55:32;;;;;;;54.10;6.03;;;16.40;1.00;;;;;;5069936;28;20204;-66
2024/04/01 06:58:20;;;;;;;58.17;6.47;;;16.50;1.00;;;;;;5058319;28;20694;-66
2024/04/01 07:01:07;;;;;;;75.73;7.27;;;16.60;1.00;;;;;;5074408;28;20679;-66
2024/04/01 07:03:53;;;;;;;70.10;6.63;;;16.70;1.00;;;;;;5074346;28;20220;-67
2024/04/01 07:06:40;;;;;;;59.07;6.73;;;17.10;1.00;;;;;;5064081;28;20225;-66
2024/04/01 07:09:27;;;;;;;69.17;7.03;;;17.50;1.00;;;;;;5064706;28;20201;-67
2024/04/01 07:12:15;;;;;;;75.77;7.80;;;17.90;99.90;;;;;;5072818;28;20229;-66
2024/04/01 07:15:03;;;;;;;68.93;7.53;;;18.10;99.90;;;;;;5071923;28;20201;-67
2024/04/01 07:17:51;;;;;;;67.53;7.30;;;18.30;99.90;;;;;;5077003;28;20220;-68
2024/04/01 07:20:37;;;;;;;78.30;7.03;;;18.10;99.90;;;;;;5072839;28;20198;-67
2024/04/01 07:23:24;;;;;;;75.10;8.03;;;18.10;99.90;;;;;;5061640;28;20201;-67
2024/04/01 07:26:10;;;;;;;60.17;7.07;;;18.30;99.90;;;;;;5073948;28;20200;-67
2024/04/01 07:28:58;;;;;;;76.13;6.67;;;18.60;99.90;;;;;;5066016;28;20201;-67
2024/04/01 07:31:46;;;;;;;79.80;6.40;;;18.60;99.90;;;;;;5074104;28;20200;-66
2024/04/01 07:34:33;;;;;;;88.63;7.60;;;18.40;99.90;;;;;;5071074;28;20202;-66
2024/04/01 07:37:20;;;;;;;67.70;6.30;;;18.40;99.90;;;;;;5071078;28;20205;-66
2024/04/01 07:40:08;;;;;;;84.43;7.57;;;18.40;99.90;;;;;;5064355;28;20247;-67
2024/04/01 07:42:54;;;;;;;71.93;7.00;;;18.40;99.90;;;;;;5069713;28;20217;-66
2024/04/01 07:45:41;;;;;;;73.80;6.93;;;18.40;99.90;;;;;;5076810;28;20239;-66
2024/04/01 07:48:29;;;;;;;64.87;7.57;;;18.50;99.90;;;;;;5064544;28;20288;-67
2024/04/01 07:51:16;;;;;;;78.33;8.13;;;18.90;99.90;;;;;;5070098;28;20330;-67
2024/04/01 07:54:03;;;;;;;81.17;7.67;;;18.90;99.90;;;;;;5060000;28;20214;-67
2024/04/01 07:56:50;;;;;;;82.97;7.77;;;18.90;99.90;;;;;;5058637;28;20247;-67
2024/04/01 07:59:37;;;;;;;73.33;9.03;;;19.10;99.90;;;;;;5062841;28;20198;-66
2024/04/01 08:02:24;;;;;;;77.47;7.67;;;19.00;99.90;;;;;;5074658;28;20653;-66
2024/04/01 08:05:12;;;;;;;69.57;7.20;;;19.20;99.90;;;;;;5068541;28;20587;-67
2024/04/01 08:08:00;;;;;;;70.87;8.07;;;19.40;99.90;;;;;;5065311;28;20340;-67
2024/04/01 08:10:46;;;;;;;77.57;8.10;;;19.40;99.90;;;;;;5057747;28;20219;-67
2024/04/01 08:13:34;;;;;;;68.10;7.77;;;19.70;99.90;;;;;;5068737;28;20204;-67
2024/04/01 08:16:20;;;;;;;85.97;7.77;;;20.10;99.90;;;;;;5060797;28;20573;-67
2024/04/01 08:19:07;;;;;;;77.87;8.23;;;20.00;99.90;;;;;;5056777;28;20622;-67
2024/04/01 08:21:55;;;;;;;75.60;7.83;;;19.90;99.90;;;;;;5060416;28;20659;-67
2024/04/01 08:24:42;;;;;;;68.27;7.50;;;20.20;1.00;;;;;;5067833;28;20227;-67
2024/04/01 08:27:28;;;;;;;75.67;7.33;;;20.70;1.00;;;;;;5064827;28;20203;-67
2024/04/01 08:30:15;;;;;;;88.87;8.97;;;21.20;1.00;;;;;;5059672;28;20203;-66
2024/04/01 08:33:03;;;;;;;66.70;7.80;;;21.00;1.00;;;;;;5068983;28;20222;-67
2024/04/01 08:35:49;;;;;;;85.07;7.90;;;20.90;1.00;;;;;;5061129;28;20203;-66
2024/04/01 08:38:37;;;;;;;67.73;7.70;;;20.50;1.00;;;;;;5067092;28;20248;-66
2024/04/01 08:41:27;;;;;;;67.40;8.33;;;20.30;1.00;;;;;;5059230;28;20225;-67
2024/04/01 08:44:15;;;;;;;54.67;5.63;;;20.50;1.00;;;;;;5064317;28;20581;-67
2024/04/01 08:47:01;;;;;;;90.13;9.80;;;20.50;1.00;;;;;;5064508;28;20582;-66
2024/04/01 08:50:00;;;;;;;59.50;7.13;;;20.50;1.00;;;;;;5048873;28;20197;-66
2024/04/01 08:52:50;;;;;;;85.20;7.80;;;20.40;1.00;;;;;;5062485;28;20694;-66
2024/04/01 08:55:38;;;;;;;57.83;7.17;;;20.50;1.00;;;;;;5066732;28;20196;-66
2024/04/01 08:58:24;;;;;;;70.87;7.73;;;20.30;1.00;;;;;;5057354;28;20207;-66
2024/04/01 09:01:12;;;;;;;102.60;9.30;;;20.20;1.00;;;;;;5061622;28;20211;-66
2024/04/01 09:03:58;;;;;;;78.67;7.93;;;20.40;1.00;;;;;;5062716;28;20784;-66
2024/04/01 09:06:45;;;;;;;105.10;9.77;;;20.70;1.00;;;;;;5060729;28;20204;-66
2024/04/01 09:09:31;;;;;;;98.87;9.33;;;21.30;1.00;;;;;;5061015;28;20201;-66
2024/04/01 09:12:21;;;;;;;63.77;7.57;;;21.70;1.00;;;;;;5062756;28;20272;-66
2024/04/01 09:15:11;;;;;;;85.43;8.50;;;22.00;1.00;;;;;;5049263;28;20201;-66
2024/04/01 09:17:58;;;;;;;108.07;7.13;;;22.00;1.00;;;;;;5049316;28;20229;-66
2024/04/01 09:20:44;;;;;;;80.47;9.50;;;21.90;1.00;;;;;;5061174;28;20197;-66
2024/04/01 09:23:32;;;;;;;92.70;10.37;;;21.60;1.00;;;;;;5052017;28;20365;-65
2024/04/01 09:26:18;;;;;;;81.67;8.60;;;21.30;1.00;;;;;;5056845;28;20221;-66
2024/04/01 09:29:07;;;;;;;85.10;9.60;;;21.50;1.00;;;;;;5049802;28;20196;-66
2024/04/01 09:31:53;;;;;;;56.67;6.63;;;21.60;1.00;;;;;;5065915;28;20204;-66
2024/04/01 09:34:40;;;;;;;80.00;9.40;;;21.70;1.00;;;;;;5056604;28;20236;-66
2024/04/01 09:37:27;;;;;;;60.33;4.83;;;21.60;1.00;;;;;;5060880;28;20196;-66
2024/04/01 09:40:14;;;;;;;97.73;8.63;;;21.90;1.00;;;;;;5066254;28;20322;-66
2024/04/01 09:43:01;;;;;;;84.40;7.73;;;21.90;1.00;;;;;;5052717;28;20201;-66
2024/04/01 09:45:50;;;;;;;73.47;7.70;;;21.90;1.00;;;;;;5060635;28;20213;-66
2024/04/01 09:48:37;;;;;;;87.67;8.73;;;22.00;1.00;;;;;;5058894;28;20207;-66
2024/04/01 09:51:24;;;;;;;73.93;9.13;;;22.20;1.00;;;;;;5048399;28;20204;-66
2024/04/01 09:54:11;;;;;;;74.77;8.30;;;22.20;1.00;;;;;;5055177;28;20204;-66
2024/04/01 09:57:48;;;;;;;81.20;8.83;;;22.40;1.00;;;;;;5053190;28;20283;-66
2024/04/01 10:00:38;;;;;;;84.97;8.33;;;22.10;1.00;;;;;;4996528;28;20210;-66
2024/04/01 10:03:56;;;;;;;69.50;8.50;;;22.40;1.00;;;;;;5048263;28;20213;-67
2024/04/01 10:07:13;;;;;;;65.50;7.10;;;22.40;1.00;;;;;;5059181;28;20570;-67
2024/04/01 10:10:36;;;;;;;74.33;7.63;;;22.60;1.00;;;;;;5048192;28;20205;-67
2024/04/01 10:13:55;;;;;;;84.20;8.43;;;22.50;1.00;;;;;;5048248;28;20209;-67
2024/04/01 10:17:03;;;;;;;90.03;9.77;;;22.50;1.00;;;;;;5054483;28;20201;-67
2024/04/01 10:20:08;;;;;;;85.80;9.33;;;23.00;1.00;;;;;;5058951;28;20204;-66
2024/04/01 10:23:28;;;;;;;72.53;9.30;;;23.10;1.00;;;;;;5058397;28;20201;-67
2024/04/01 10:26:53;;;;;;;79.93;7.70;;;23.30;1.00;;;;;;5049331;28;20213;-67
2024/04/01 10:30:06;;;;;;;82.83;9.60;;;23.30;1.00;;;;;;5048108;28;20208;-67
2024/04/01 10:33:47;;;;;;;79.10;8.50;;;23.20;1.00;;;;;;5039012;28;20215;-67
2024/04/01 10:36:44;;;;;;;57.13;7.37;;;23.60;1.00;;;;;;5011992;28;20205;-66
2024/04/01 10:39:42;;;;;;;83.00;8.37;;;23.40;1.00;;;;;;5021650;28;20226;-67
2024/04/01 10:42:58;;;;;;;71.97;7.07;;;23.40;1.00;;;;;;5051097;28;20208;-67
2024/04/01 10:46:31;;;;;;;77.00;7.93;;;23.90;1.00;;;;;;5051745;28;20708;-67
2024/04/01 10:49:51;;;;;;;55.80;7.63;;;23.90;1.00;;;;;;5055052;28;20603;-67
2024/04/01 10:52:49;;;;;;;62.80;6.27;;;23.60;1.00;;;;;;5050457;28;20197;-66
2024/04/01 10:55:54;;;;;;;68.17;8.90;;;23.60;1.00;;;;;;5065145;28;20223;-67
2024/04/01 10:59:05;;;;;;;69.90;7.73;;;23.40;1.00;;;;;;5063968;28;20454;-66
2024/04/01 11:01:58;;;;;;;88.00;8.17;;;23.30;1.00;;;;;;5063663;28;20192;-66
2024/04/01 11:04:50;;;;;;;69.77;7.73;;;22.70;1.00;;;;;;5065945;28;20713;-66
2024/04/01 11:07:51;;;;;;;70.57;8.10;;;22.50;1.00;;;;;;5062036;28;20663;-66
2024/04/01 11:10:39;;;;;;;61.50;7.03;;;22.70;1.00;;;;;;5051031;28;20208;-66
2024/04/01 11:13:28;;;;;;;69.37;7.40;;;22.70;1.00;;;;;;5063941;28;20604;-66
2024/04/01 11:16:14;;;;;;;72.10;7.97;;;22.70;1.00;;;;;;5063686;28;20260;-66
2024/04/01 11:19:11;;;;;;;83.30;8.47;;;22.60;1.00;;;;;;5051458;28;20224;-67
2024/04/01 11:21:57;;;;;;;69.30;6.53;;;22.50;1.00;;;;;;5061954;28;20227;-66
2024/04/01 11:25:02;;;;;;;73.40;7.13;;;22.60;1.00;;;;;;5070743;28;20258;-66
2024/04/01 11:27:59;;;;;;;52.33;5.90;;;22.70;1.00;;;;;;5052682;28;20201;-66
2024/04/01 11:30:46;;;;;;;72.07;7.83;;;22.70;1.00;;;;;;5051278;28;20221;-66
2024/04/01 11:33:34;;;;;;;74.70;7.80;;;22.60;1.00;;;;;;5066703;28;20241;-66
2024/04/01 11:36:27;;;;;;;59.70;7.63;;;22.60;1.00;;;;;;5058403;28;20271;-66
2024/04/01 11:39:16;;;;;;;68.70;7.03;;;22.60;1.00;;;;;;5050557;28;20225;-66
2024/04/01 11:42:06;;;;;;;66.73;7.17;;;22.70;1.00;;;;;;5051997;28;20202;-66
2024/04/01 11:44:52;;;;;;;67.37;6.93;;;22.80;1.00;;;;;;5051973;28;20217;-66
2024/04/01 11:47:40;;;;;;;61.53;6.87;;;23.10;1.00;;;;;;5063271;28;20200;-67
2024/04/01 11:50:27;;;;;;;64.23;7.47;;;23.30;1.00;;;;;;5052137;28;20200;-66
2024/04/01 11:53:14;;;;;;;43.20;4.93;;;23.50;1.00;;;;;;5070114;28;20196;-66
2024/04/01 11:56:02;;;;;;;71.40;6.73;;;23.60;1.00;;;;;;5062161;28;20201;-66
2024/04/01 11:58:49;;;;;;;56.17;6.47;;;23.60;1.00;;;;;;5051335;28;20217;-66
2024/04/01 12:01:37;;;;;;;66.33;6.83;;;23.90;1.00;;;;;;5051634;28;20327;-66
2024/04/01 12:04:24;;;;;;;45.53;6.37;;;24.00;1.00;;;;;;5053818;28;20676;-66
2024/04/01 12:07:11;;;;;;;71.73;7.53;;;24.00;1.00;;;;;;5065541;28;20306;-66
2024/04/01 12:10:03;;;;;;;47.67;5.43;;;23.60;1.00;;;;;;5050714;28;20201;-66
2024/04/01 12:12:50;;;;;;;62.80;6.80;;;23.70;1.00;;;;;;5051544;28;20201;-67
2024/04/01 12:15:38;;;;;;;60.00;6.03;;;23.70;1.00;;;;;;5054572;28;20208;-66
2024/04/01 12:18:25;;;;;;;57.70;7.50;;;23.60;1.00;;;;;;5051784;28;20710;-67
2024/04/01 12:21:12;;;;;;;53.20;8.00;;;23.40;1.00;;;;;;5048857;28;20217;-66
2024/04/01 12:23:59;;;;;;;58.93;6.70;;;23.20;1.00;;;;;;5049955;28;20224;-66
2024/04/01 12:26:49;;;;;;;55.60;6.30;;;23.10;1.00;;;;;;5050911;28;20692;-66
2024/04/01 12:29:37;;;;;;;64.20;6.80;;;23.00;1.00;;;;;;5060709;28;20222;-66
2024/04/01 12:32:26;;;;;;;75.83;7.17;;;23.00;1.00;;;;;;5050419;28;20680;-66
2024/04/01 12:35:14;;;;;;;41.23;5.10;;;22.80;1.00;;;;;;5066918;28;20684;-66
2024/04/01 12:38:04;;;;;;;64.23;6.50;;;22.80;1.00;;;;;;5059226;28;20280;-66
2024/04/01 12:40:51;;;;;;;76.50;6.77;;;22.80;1.00;;;;;;5058492;28;20320;-66
2024/04/01 12:43:39;;;;;;;66.90;6.07;;;22.70;1.00;;;;;;5049807;28;20193;-66
2024/04/01 12:46:26;;;;;;;38.37;5.10;;;22.70;1.00;;;;;;5049083;28;20225;-66
2024/04/01 12:49:15;;;;;;;28.90;3.90;;;22.60;1.00;;;;;;5056173;28;20212;-66
2024/04/01 12:52:01;;;;;;;71.17;7.17;;;22.60;1.00;;;;;;5069067;28;20213;-66
2024/04/01 12:55:00;;;;;;;62.93;7.57;;;22.80;1.00;;;;;;5055751;28;20221;-66
2024/04/01 12:57:55;;;;;;;59.67;7.80;;;22.90;1.00;;;;;;5049714;28;20291;-66
2024/04/01 13:00:44;;;;;;;64.87;5.53;;;23.00;1.00;;;;;;5063422;28;20205;-67
2024/04/01 13:03:46;;;;;;;24.17;3.17;;;22.90;1.00;;;;;;5050698;28;20212;-65
2024/04/01 13:06:47;;;;;;;67.37;6.20;;;23.00;1.00;;;;;;5049909;28;20283;-66
2024/04/01 13:09:37;;;;;;;77.27;7.67;;;23.00;1.00;;;;;;5054903;28;20204;-66
2024/04/01 13:12:31;;;;;;;71.07;7.27;;;23.20;1.00;;;;;;5053837;28;20192;-66
2024/04/01 13:15:20;;;;;;;76.37;6.60;;;23.20;1.00;;;;;;5049534;28;20205;-66
2024/04/01 13:18:11;;;;;;;69.87;7.60;;;23.20;1.00;;;;;;5059617;28;20269;-66
2024/04/01 13:21:01;;;;;;;42.53;6.37;;;23.40;1.00;;;;;;5061577;28;20648;-66
2024/04/01 13:23:52;;;;;;;68.23;7.63;;;23.40;1.00;;;;;;5063113;28;20229;-66
2024/04/01 13:26:40;;;;;;;71.40;7.20;;;23.40;1.00;;;;;;5050765;28;20220;-66
2024/04/01 13:29:31;;;;;;;86.73;7.67;;;23.60;1.00;;;;;;5068792;28;20261;-66
2024/04/01 13:32:21;;;;;;;59.13;6.90;;;23.90;1.00;;;;;;5068327;28;20208;-66
2024/04/01 13:35:14;;;;;;;69.15;7.43;;;24.30;1.00;;;;;;5053799;28;20648;-66
2024/04/01 13:38:03;;;;;;;60.80;5.68;;;24.70;1.00;;;;;;5069006;28;20208;-66
2024/04/01 13:40:57;;;;;;;64.53;7.00;;;24.30;1.00;;;;;;5049048;28;20225;-66
2024/04/01 13:43:52;;;;;;;66.93;7.40;;;24.30;1.00;;;;;;5055290;28;20213;-66
2024/04/01 13:46:44;;;;;;;52.33;5.30;;;24.50;1.00;;;;;;5068561;28;20237;-66
2024/04/01 13:49:43;;;;;;;57.43;6.50;;;24.80;1.00;;;;;;5052881;28;20205;-66
2024/04/01 13:52:38;;;;;;;62.13;7.43;;;24.70;1.00;;;;;;5049996;28;20197;-66
2024/04/01 13:55:28;;;;;;;68.20;6.93;;;25.20;1.00;;;;;;5068863;28;20283;-67
2024/04/01 13:58:21;;;;;;;59.17;7.05;;;25.90;1.00;;;;;;5056773;28;20208;-66
2024/04/01 14:01:12;;;;;;;71.00;6.03;;;26.20;1.00;;;;;;5051585;28;20615;-66
2024/04/01 14:04:09;;;;;;;60.90;7.30;;;25.80;1.00;;;;;;5050296;28;20227;-66
2024/04/01 14:07:01;;;;;;;57.33;6.43;;;25.30;1.00;;;;;;5062108;28;20235;-66
2024/04/01 14:09:55;;;;;;;55.95;5.93;;;25.40;1.00;;;;;;5064690;28;20668;-66
2024/04/01 14:12:50;;;;;;;73.72;6.38;;;25.80;1.00;;;;;;5058403;28;20201;-66
2024/04/01 14:15:43;;;;;;;68.15;6.10;;;26.60;1.00;;;;;;5070462;28;20189;-66
2024/04/01 14:18:39;;;;;;;62.70;7.90;;;26.50;1.00;;;;;;5068027;28;20227;-66
2024/04/01 14:21:27;;;;;;;67.93;7.32;;;26.00;1.00;;;;;;5063109;28;20280;-66
2024/04/01 14:24:14;;;;;;;27.73;4.78;;;25.80;1.00;;;;;;5059325;28;20562;-66
2024/04/01 14:27:01;;;;;;;43.42;6.30;;;25.90;1.00;;;;;;5058396;28;20696;-66
2024/04/01 14:29:47;;;;;;;46.70;8.10;;;26.10;1.00;;;;;;5059698;28;20813;-67
2024/04/01 14:32:36;;;;;;;60.50;6.43;;;25.90;1.00;;;;;;5052933;28;20216;-66
2024/04/01 14:35:22;;;;;;;79.05;7.50;;;25.90;1.00;;;;;;5052526;28;20202;-66
2024/04/01 14:38:13;;;;;;;71.80;7.75;;;26.20;1.00;;;;;;5059378;28;20200;-66